sensor_id;sensor_type;location;lat;lon;timestamp;P1;durP1;ratioP1;P2;durP2;ratioP2
70535;SDS011;58089;48.752;11.338;2022-12-28T05:02:32;10.65;;;5.50;;
70535;SDS011;58089;48.752;11.338;2022-12-28T05:04:57;14.90;;;5.80;;
70535;SDS011;58089;48.752;11.338;2022-12-28T05:07:23;13.67;;;6.83;;
70535;SDS011;58089;48.752;11.338;2022-12-28T05:09:48;11.50;;;5.97;;
70535;SDS011;58089;48.752;11.338;2022-12-28T05:12:13;12.03;;;6.23;;
70535;SDS011;58089;48.752;11.338;2022-12-28T05:14:38;12.67;;;6.23;;
70535;SDS011;58089;48.752;11.338;2022-12-28T05:17:06;16.23;;;7.35;;
70535;SDS011;58089;48.752;11.338;2022-12-28T05:19:31;11.83;;;6.07;;
70535;SDS011;58089;48.752;11.338;2022-12-28T05:21:56;12.33;;;6.60;;
70535;SDS011;58089;48.752;11.338;2022-12-28T05:24:21;13.73;;;7.20;;
70535;SDS011;58089;48.752;11.338;2022-12-28T05:26:47;16.07;;;7.67;;
70535;SDS011;58089;48.752;11.338;2022-12-28T05:29:12;14.00;;;6.90;;
70535;SDS011;58089;48.752;11.338;2022-12-28T05:31:37;13.73;;;7.33;;
70535;SDS011;58089;48.752;11.338;2022-12-28T05:34:02;12.03;;;7.00;;
70535;SDS011;58089;48.752;11.338;2022-12-28T05:36:28;14.03;;;7.77;;
70535;SDS011;58089;48.752;11.338;2022-12-28T05:38:54;12.07;;;6.87;;
70535;SDS011;58089;48.752;11.338;2022-12-28T05:41:21;14.05;;;6.93;;
70535;SDS011;58089;48.752;11.338;2022-12-28T05:43:47;17.10;;;7.30;;
70535;SDS011;58089;48.752;11.338;2022-12-28T05:46:14;13.63;;;7.03;;
70535;SDS011;58089;48.752;11.338;2022-12-28T05:48:43;13.95;;;7.32;;
70535;SDS011;58089;48.752;11.338;2022-12-28T05:51:09;13.93;;;6.53;;
70535;SDS011;58089;48.752;11.338;2022-12-28T05:53:39;12.55;;;7.20;;
70535;SDS011;58089;48.752;11.338;2022-12-28T05:56:12;16.10;;;7.97;;
70535;SDS011;58089;48.752;11.338;2022-12-28T05:58:39;15.43;;;7.10;;
70535;SDS011;58089;48.752;11.338;2022-12-28T06:03:37;11.43;;;6.80;;
70535;SDS011;58089;48.752;11.338;2022-12-28T06:06:06;12.48;;;7.00;;
70535;SDS011;58089;48.752;11.338;2022-12-28T06:08:34;13.25;;;8.00;;
70535;SDS011;58089;48.752;11.338;2022-12-28T06:11:04;12.73;;;7.00;;
70535;SDS011;58089;48.752;11.338;2022-12-28T06:13:30;12.15;;;7.18;;
70535;SDS011;58089;48.752;11.338;2022-12-28T06:15:56;15.87;;;7.10;;
70535;SDS011;58089;48.752;11.338;2022-12-28T06:18:22;15.00;;;6.03;;
70535;SDS011;58089;48.752;11.338;2022-12-28T06:20:48;17.92;;;6.60;;
70535;SDS011;58089;48.752;11.338;2022-12-28T06:23:13;15.30;;;6.80;;
70535;SDS011;58089;48.752;11.338;2022-12-28T06:25:38;13.77;;;6.50;;
70535;SDS011;58089;48.752;11.338;2022-12-28T06:28:04;15.30;;;8.70;;
70535;SDS011;58089;48.752;11.338;2022-12-28T06:30:29;19.10;;;12.10;;
70535;SDS011;58089;48.752;11.338;2022-12-28T06:32:55;18.33;;;10.53;;
70535;SDS011;58089;48.752;11.338;2022-12-28T06:35:20;18.25;;;10.18;;
70535;SDS011;58089;48.752;11.338;2022-12-28T06:37:46;15.83;;;8.60;;
70535;SDS011;58089;48.752;11.338;2022-12-28T06:40:12;13.07;;;7.47;;
70535;SDS011;58089;48.752;11.338;2022-12-28T06:42:37;22.83;;;10.97;;
70535;SDS011;58089;48.752;11.338;2022-12-28T06:45:02;15.63;;;10.00;;
70535;SDS011;58089;48.752;11.338;2022-12-28T06:47:28;14.23;;;8.05;;
70535;SDS011;58089;48.752;11.338;2022-12-28T06:49:53;13.50;;;7.43;;
70535;SDS011;58089;48.752;11.338;2022-12-28T06:52:19;11.77;;;6.80;;
70535;SDS011;58089;48.752;11.338;2022-12-28T06:54:45;12.83;;;7.47;;
70535;SDS011;58089;48.752;11.338;2022-12-28T06:57:10;13.10;;;7.60;;
70535;SDS011;58089;48.752;11.338;2022-12-28T06:59:35;13.53;;;7.97;;
70535;SDS011;58089;48.752;11.338;2022-12-28T07:02:00;12.97;;;7.70;;
70535;SDS011;58089;48.752;11.338;2022-12-28T07:04:26;17.27;;;10.43;;
70535;SDS011;58089;48.752;11.338;2022-12-28T15:26:31;12.75;;;11.75;;
70535;SDS011;58089;48.752;11.338;2022-12-28T15:28:56;6.17;;;2.43;;
70535;SDS011;58089;48.752;11.338;2022-12-28T15:31:22;5.37;;;1.70;;
70535;SDS011;58089;48.752;11.338;2022-12-28T15:33:47;5.97;;;1.48;;
70535;SDS011;58089;48.752;11.338;2022-12-28T15:36:14;5.10;;;1.87;;
70535;SDS011;58089;48.752;11.338;2022-12-28T15:38:43;5.35;;;1.40;;
70535;SDS011;58089;48.752;11.338;2022-12-28T15:41:09;4.95;;;1.83;;
70535;SDS011;58089;48.752;11.338;2022-12-28T15:43:53;5.27;;;1.80;;
70535;SDS011;58089;48.752;11.338;2022-12-28T15:46:18;4.85;;;1.67;;
70535;SDS011;58089;48.752;11.338;2022-12-28T15:48:44;5.37;;;1.90;;
70535;SDS011;58089;48.752;11.338;2022-12-28T15:51:09;5.47;;;2.03;;
70535;SDS011;58089;48.752;11.338;2022-12-28T15:53:34;5.53;;;1.67;;
70535;SDS011;58089;48.752;11.338;2022-12-28T15:56:00;6.90;;;1.87;;
70535;SDS011;58089;48.752;11.338;2022-12-28T15:58:26;18.27;;;6.50;;
70535;SDS011;58089;48.752;11.338;2022-12-28T16:00:51;6.03;;;2.17;;
70535;SDS011;58089;48.752;11.338;2022-12-28T16:03:16;12.93;;;4.13;;
70535;SDS011;58089;48.752;11.338;2022-12-28T16:05:42;27.13;;;11.70;;
70535;SDS011;58089;48.752;11.338;2022-12-28T16:08:07;10.93;;;4.93;;
70535;SDS011;58089;48.752;11.338;2022-12-28T16:10:32;13.63;;;6.00;;
70535;SDS011;58089;48.752;11.338;2022-12-28T16:12:58;7.90;;;2.93;;
70535;SDS011;58089;48.752;11.338;2022-12-28T16:15:23;10.33;;;3.37;;
70535;SDS011;58089;48.752;11.338;2022-12-28T16:17:48;8.60;;;2.43;;
70535;SDS011;58089;48.752;11.338;2022-12-28T16:20:14;8.63;;;2.63;;
70535;SDS011;58089;48.752;11.338;2022-12-28T16:22:39;11.13;;;3.00;;
70535;SDS011;58089;48.752;11.338;2022-12-28T16:25:04;9.03;;;2.53;;
70535;SDS011;58089;48.752;11.338;2022-12-28T16:27:30;5.93;;;2.50;;
70535;SDS011;58089;48.752;11.338;2022-12-28T16:29:55;7.03;;;2.63;;
70535;SDS011;58089;48.752;11.338;2022-12-28T16:32:21;5.57;;;1.90;;
70535;SDS011;58089;48.752;11.338;2022-12-28T16:34:46;7.10;;;2.50;;
70535;SDS011;58089;48.752;11.338;2022-12-28T16:37:11;8.80;;;3.00;;
70535;SDS011;58089;48.752;11.338;2022-12-28T16:39:38;6.73;;;2.07;;
70535;SDS011;58089;48.752;11.338;2022-12-28T16:42:04;5.70;;;1.80;;
70535;SDS011;58089;48.752;11.338;2022-12-28T16:44:30;6.47;;;1.80;;
70535;SDS011;58089;48.752;11.338;2022-12-28T16:46:56;13.47;;;7.00;;
70535;SDS011;58089;48.752;11.338;2022-12-28T16:49:22;27.13;;;15.23;;
70535;SDS011;58089;48.752;11.338;2022-12-28T16:51:48;5.95;;;1.30;;
70535;SDS011;58089;48.752;11.338;2022-12-28T16:54:14;5.53;;;1.20;;
70535;SDS011;58089;48.752;11.338;2022-12-28T16:56:41;7.35;;;2.45;;
70535;SDS011;58089;48.752;11.338;2022-12-28T16:59:08;5.68;;;2.30;;
70535;SDS011;58089;48.752;11.338;2022-12-28T17:01:36;5.40;;;2.20;;
70535;SDS011;58089;48.752;11.338;2022-12-28T17:04:02;7.47;;;3.00;;
70535;SDS011;58089;48.752;11.338;2022-12-28T17:06:27;4.80;;;1.60;;
70535;SDS011;58089;48.752;11.338;2022-12-28T17:08:53;4.53;;;2.17;;
70535;SDS011;58089;48.752;11.338;2022-12-28T17:11:18;6.37;;;2.43;;
70535;SDS011;58089;48.752;11.338;2022-12-28T17:13:43;7.10;;;2.47;;
70535;SDS011;58089;48.752;11.338;2022-12-28T17:16:09;4.30;;;1.30;;
70535;SDS011;58089;48.752;11.338;2022-12-28T17:18:34;8.10;;;2.73;;
70535;SDS011;58089;48.752;11.338;2022-12-28T17:20:59;4.63;;;2.10;;
70535;SDS011;58089;48.752;11.338;2022-12-28T17:23:25;5.23;;;1.57;;
70535;SDS011;58089;48.752;11.338;2022-12-28T17:25:53;4.60;;;1.63;;
70535;SDS011;58089;48.752;11.338;2022-12-28T17:28:20;5.17;;;1.70;;
70535;SDS011;58089;48.752;11.338;2022-12-28T17:30:46;6.05;;;2.00;;
70535;SDS011;58089;48.752;11.338;2022-12-28T17:33:11;7.00;;;1.73;;
70535;SDS011;58089;48.752;11.338;2022-12-28T17:35:38;6.60;;;2.20;;
70535;SDS011;58089;48.752;11.338;2022-12-28T17:38:03;6.47;;;2.17;;
70535;SDS011;58089;48.752;11.338;2022-12-28T17:40:29;6.28;;;2.28;;
70535;SDS011;58089;48.752;11.338;2022-12-28T17:42:54;5.97;;;2.03;;
70535;SDS011;58089;48.752;11.338;2022-12-28T17:45:19;4.77;;;1.50;;
70535;SDS011;58089;48.752;11.338;2022-12-28T17:47:44;31.80;;;19.70;;
70535;SDS011;58089;48.752;11.338;2022-12-28T17:50:10;33.53;;;14.47;;
70535;SDS011;58089;48.752;11.338;2022-12-28T17:52:35;8.33;;;3.00;;
70535;SDS011;58089;48.752;11.338;2022-12-28T17:55:00;6.70;;;2.57;;
70535;SDS011;58089;48.752;11.338;2022-12-28T17:57:27;6.72;;;3.05;;
70535;SDS011;58089;48.752;11.338;2022-12-28T17:59:52;9.20;;;2.77;;
70535;SDS011;58089;48.752;11.338;2022-12-28T18:02:17;5.33;;;2.30;;
70535;SDS011;58089;48.752;11.338;2022-12-28T18:04:43;7.10;;;2.40;;
70535;SDS011;58089;48.752;11.338;2022-12-28T18:07:08;7.37;;;2.20;;
70535;SDS011;58089;48.752;11.338;2022-12-28T18:09:33;6.60;;;1.90;;
70535;SDS011;58089;48.752;11.338;2022-12-28T18:11:59;6.47;;;2.53;;
70535;SDS011;58089;48.752;11.338;2022-12-28T18:14:25;6.50;;;2.67;;
70535;SDS011;58089;48.752;11.338;2022-12-28T18:16:50;7.57;;;2.50;;
70535;SDS011;58089;48.752;11.338;2022-12-28T18:19:16;7.00;;;3.10;;
70535;SDS011;58089;48.752;11.338;2022-12-28T18:21:41;5.13;;;1.93;;
70535;SDS011;58089;48.752;11.338;2022-12-28T18:24:08;5.83;;;1.83;;
70535;SDS011;58089;48.752;11.338;2022-12-28T18:26:36;5.55;;;1.83;;
70535;SDS011;58089;48.752;11.338;2022-12-28T18:29:01;6.07;;;1.87;;
70535;SDS011;58089;48.752;11.338;2022-12-28T18:31:26;4.90;;;1.60;;
70535;SDS011;58089;48.752;11.338;2022-12-28T18:33:52;5.50;;;1.63;;
70535;SDS011;58089;48.752;11.338;2022-12-28T18:36:17;5.73;;;1.83;;
70535;SDS011;58089;48.752;11.338;2022-12-28T18:38:42;43.47;;;17.43;;
70535;SDS011;58089;48.752;11.338;2022-12-28T18:41:08;23.93;;;12.73;;
70535;SDS011;58089;48.752;11.338;2022-12-28T18:43:35;11.55;;;6.53;;
70535;SDS011;58089;48.752;11.338;2022-12-28T18:46:01;9.40;;;4.57;;
70535;SDS011;58089;48.752;11.338;2022-12-28T18:48:27;5.75;;;2.88;;
70535;SDS011;58089;48.752;11.338;2022-12-28T18:51:01;6.63;;;3.15;;
70535;SDS011;58089;48.752;11.338;2022-12-28T18:53:30;5.10;;;2.45;;
70535;SDS011;58089;48.752;11.338;2022-12-28T18:56:00;4.63;;;1.60;;
70535;SDS011;58089;48.752;11.338;2022-12-28T18:58:27;5.73;;;1.70;;
70535;SDS011;58089;48.752;11.338;2022-12-28T19:00:59;5.45;;;1.70;;
70535;SDS011;58089;48.752;11.338;2022-12-28T19:03:26;4.68;;;1.80;;
70535;SDS011;58089;48.752;11.338;2022-12-28T19:05:58;6.30;;;1.90;;
70535;SDS011;58089;48.752;11.338;2022-12-28T19:08:24;6.20;;;2.55;;
70535;SDS011;58089;48.752;11.338;2022-12-28T19:10:49;6.73;;;1.73;;
70535;SDS011;58089;48.752;11.338;2022-12-28T19:13:14;5.27;;;2.40;;
70535;SDS011;58089;48.752;11.338;2022-12-28T19:15:40;6.13;;;1.77;;
70535;SDS011;58089;48.752;11.338;2022-12-28T19:18:05;6.37;;;1.63;;
70535;SDS011;58089;48.752;11.338;2022-12-28T19:20:30;6.10;;;1.60;;
70535;SDS011;58089;48.752;11.338;2022-12-28T19:22:56;5.90;;;1.90;;
70535;SDS011;58089;48.752;11.338;2022-12-28T19:25:21;6.70;;;1.93;;
70535;SDS011;58089;48.752;11.338;2022-12-28T19:27:47;7.20;;;2.47;;
70535;SDS011;58089;48.752;11.338;2022-12-28T19:30:12;6.13;;;2.40;;
70535;SDS011;58089;48.752;11.338;2022-12-28T19:32:37;9.90;;;4.00;;
70535;SDS011;58089;48.752;11.338;2022-12-28T19:35:03;26.67;;;15.47;;
70535;SDS011;58089;48.752;11.338;2022-12-28T19:37:28;29.50;;;17.87;;
70535;SDS011;58089;48.752;11.338;2022-12-28T19:39:53;26.37;;;13.73;;
70535;SDS011;58089;48.752;11.338;2022-12-28T19:42:19;24.27;;;13.97;;
70535;SDS011;58089;48.752;11.338;2022-12-28T19:44:44;25.57;;;12.50;;
70535;SDS011;58089;48.752;11.338;2022-12-28T19:47:09;38.53;;;18.23;;
70535;SDS011;58089;48.752;11.338;2022-12-28T19:49:34;29.50;;;15.40;;
70535;SDS011;58089;48.752;11.338;2022-12-28T19:52:00;29.20;;;15.77;;
70535;SDS011;58089;48.752;11.338;2022-12-28T19:54:26;23.40;;;12.82;;
70535;SDS011;58089;48.752;11.338;2022-12-28T19:56:51;19.47;;;11.77;;
70535;SDS011;58089;48.752;11.338;2022-12-28T19:59:17;19.20;;;11.60;;
70535;SDS011;58089;48.752;11.338;2022-12-28T20:01:42;19.57;;;11.23;;
70535;SDS011;58089;48.752;11.338;2022-12-28T20:04:07;20.23;;;11.50;;
70535;SDS011;58089;48.752;11.338;2022-12-28T20:06:32;18.27;;;10.70;;
70535;SDS011;58089;48.752;11.338;2022-12-28T20:09:01;16.83;;;10.73;;
70535;SDS011;58089;48.752;11.338;2022-12-28T20:11:27;19.57;;;10.97;;
70535;SDS011;58089;48.752;11.338;2022-12-28T20:13:53;21.45;;;12.20;;
70535;SDS011;58089;48.752;11.338;2022-12-28T20:16:23;18.77;;;11.70;;
70535;SDS011;58089;48.752;11.338;2022-12-28T20:18:50;20.42;;;12.00;;
70535;SDS011;58089;48.752;11.338;2022-12-28T20:21:16;19.42;;;12.45;;
70535;SDS011;58089;48.752;11.338;2022-12-28T20:23:42;19.65;;;11.52;;
70535;SDS011;58089;48.752;11.338;2022-12-28T20:26:08;18.90;;;10.50;;
70535;SDS011;58089;48.752;11.338;2022-12-28T20:28:33;19.23;;;10.27;;
70535;SDS011;58089;48.752;11.338;2022-12-28T20:30:59;18.30;;;9.87;;
70535;SDS011;58089;48.752;11.338;2022-12-28T20:33:29;18.60;;;10.52;;
70535;SDS011;58089;48.752;11.338;2022-12-28T20:35:59;16.20;;;8.57;;
70535;SDS011;58089;48.752;11.338;2022-12-28T20:38:25;20.80;;;11.50;;
70535;SDS011;58089;48.752;11.338;2022-12-28T20:41:10;17.33;;;9.40;;
70535;SDS011;58089;48.752;11.338;2022-12-28T20:43:59;14.27;;;7.17;;
70535;SDS011;58089;48.752;11.338;2022-12-28T20:46:26;12.35;;;5.88;;
70535;SDS011;58089;48.752;11.338;2022-12-28T20:48:52;11.07;;;5.22;;
70535;SDS011;58089;48.752;11.338;2022-12-28T20:51:17;11.63;;;6.30;;
70535;SDS011;58089;48.752;11.338;2022-12-28T20:53:42;13.33;;;6.40;;
70535;SDS011;58089;48.752;11.338;2022-12-28T20:56:08;12.17;;;5.90;;
70535;SDS011;58089;48.752;11.338;2022-12-28T20:58:34;13.85;;;7.13;;
70535;SDS011;58089;48.752;11.338;2022-12-28T21:01:03;128.10;;;91.82;;
70535;SDS011;58089;48.752;11.338;2022-12-28T21:03:32;103.13;;;76.53;;
70535;SDS011;58089;48.752;11.338;2022-12-28T21:05:58;79.25;;;56.70;;
70535;SDS011;58089;48.752;11.338;2022-12-28T21:08:23;37.27;;;25.67;;
70535;SDS011;58089;48.752;11.338;2022-12-28T21:10:48;32.53;;;23.50;;
70535;SDS011;58089;48.752;11.338;2022-12-28T21:13:14;23.63;;;15.87;;
70535;SDS011;58089;48.752;11.338;2022-12-28T21:15:39;18.87;;;10.87;;
70535;SDS011;58089;48.752;11.338;2022-12-28T21:18:05;16.67;;;9.48;;
70535;SDS011;58089;48.752;11.338;2022-12-28T21:20:30;16.00;;;9.27;;
70535;SDS011;58089;48.752;11.338;2022-12-28T21:22:55;18.93;;;10.30;;
70535;SDS011;58089;48.752;11.338;2022-12-28T21:25:21;18.20;;;9.63;;
70535;SDS011;58089;48.752;11.338;2022-12-28T21:27:46;16.90;;;9.20;;
70535;SDS011;58089;48.752;11.338;2022-12-28T21:30:11;17.73;;;7.93;;
70535;SDS011;58089;48.752;11.338;2022-12-28T21:32:37;14.55;;;8.20;;
70535;SDS011;58089;48.752;11.338;2022-12-28T21:35:02;13.93;;;7.60;;
70535;SDS011;58089;48.752;11.338;2022-12-28T21:37:27;26.70;;;8.53;;
70535;SDS011;58089;48.752;11.338;2022-12-28T21:39:58;15.27;;;8.32;;
70535;SDS011;58089;48.752;11.338;2022-12-28T21:42:25;16.17;;;8.43;;
70535;SDS011;58089;48.752;11.338;2022-12-28T21:44:51;16.00;;;8.73;;
70535;SDS011;58089;48.752;11.338;2022-12-28T21:47:16;15.90;;;8.67;;
70535;SDS011;58089;48.752;11.338;2022-12-28T21:49:41;16.53;;;9.57;;
70535;SDS011;58089;48.752;11.338;2022-12-28T21:52:07;21.73;;;10.47;;
70535;SDS011;58089;48.752;11.338;2022-12-28T21:54:32;21.77;;;10.90;;
70535;SDS011;58089;48.752;11.338;2022-12-28T21:56:58;17.83;;;9.73;;
70535;SDS011;58089;48.752;11.338;2022-12-28T21:59:23;20.37;;;9.67;;
70535;SDS011;58089;48.752;11.338;2022-12-28T22:01:49;19.65;;;10.40;;
70535;SDS011;58089;48.752;11.338;2022-12-28T22:04:33;16.83;;;9.93;;
70535;SDS011;58089;48.752;11.338;2022-12-28T22:07:18;17.33;;;10.37;;
70535;SDS011;58089;48.752;11.338;2022-12-28T22:09:44;19.73;;;10.52;;
70535;SDS011;58089;48.752;11.338;2022-12-28T22:12:28;16.50;;;10.32;;
70535;SDS011;58089;48.752;11.338;2022-12-28T22:15:21;18.08;;;10.15;;
70535;SDS011;58089;48.752;11.338;2022-12-28T22:18:05;16.55;;;9.15;;
70535;SDS011;58089;48.752;11.338;2022-12-28T22:20:33;16.93;;;8.27;;
70535;SDS011;58089;48.752;11.338;2022-12-28T22:23:01;16.58;;;8.77;;
70535;SDS011;58089;48.752;11.338;2022-12-28T22:25:27;15.47;;;8.27;;
70535;SDS011;58089;48.752;11.338;2022-12-28T22:27:53;18.50;;;9.50;;
70535;SDS011;58089;48.752;11.338;2022-12-28T22:30:18;15.67;;;9.27;;
70535;SDS011;58089;48.752;11.338;2022-12-28T22:32:44;15.75;;;9.20;;
70535;SDS011;58089;48.752;11.338;2022-12-28T22:35:10;15.37;;;9.03;;
70535;SDS011;58089;48.752;11.338;2022-12-28T22:37:35;16.83;;;9.40;;
70535;SDS011;58089;48.752;11.338;2022-12-28T22:40:01;14.25;;;8.00;;
70535;SDS011;58089;48.752;11.338;2022-12-28T22:42:27;13.33;;;6.93;;
70535;SDS011;58089;48.752;11.338;2022-12-28T22:44:52;10.73;;;5.57;;
70535;SDS011;58089;48.752;11.338;2022-12-28T22:47:18;12.07;;;6.50;;
70535;SDS011;58089;48.752;11.338;2022-12-28T22:49:43;12.68;;;6.25;;
70535;SDS011;58089;48.752;11.338;2022-12-28T22:52:09;12.47;;;6.83;;
70535;SDS011;58089;48.752;11.338;2022-12-28T22:54:34;12.37;;;7.13;;
70535;SDS011;58089;48.752;11.338;2022-12-28T22:57:00;14.03;;;7.50;;
70535;SDS011;58089;48.752;11.338;2022-12-28T22:59:25;11.63;;;6.53;;
